ROTM(METAR)
05/21 16:56
METAR ROTM 210756Z 34017G23KT 9999 SKC 25/14 A2976 RMK SLP065
T02520139=
戻る
トップページへ戻る
IMOC Co,.Ltd.